createdAt,value
2023-03-10T00:01:13.727Z,19.53
2023-03-10T00:03:41.855Z,19.43
2023-03-10T00:06:12.624Z,18.77
2023-03-10T00:08:41.003Z,19.70
2023-03-10T00:11:09.442Z,17.23
2023-03-10T00:13:37.765Z,16.80
2023-03-10T00:16:06.720Z,17.70
2023-03-10T00:18:34.882Z,17.33
2023-03-10T00:21:02.777Z,18.40
2023-03-10T00:23:32.030Z,17.20
2023-03-10T00:26:01.872Z,17.07
2023-03-10T00:28:29.968Z,16.83
2023-03-10T00:30:59.794Z,16.37
2023-03-10T00:33:27.798Z,24.20
2023-03-10T00:36:07.264Z,15.87
2023-03-10T00:38:37.978Z,16.13
2023-03-10T00:41:08.304Z,17.70
2023-03-10T00:43:36.925Z,17.97
2023-03-10T00:46:05.436Z,17.20
2023-03-10T00:48:33.861Z,16.17
2023-03-10T00:51:01.633Z,16.17
2023-03-10T00:53:30.237Z,15.30
2023-03-10T00:56:01.390Z,17.13
2023-03-10T00:58:30.184Z,14.27
2023-03-10T01:00:58.247Z,15.83
2023-03-10T01:03:27.438Z,15.30
2023-03-10T01:05:56.187Z,14.80
2023-03-10T01:08:24.308Z,14.37
2023-03-10T01:10:52.806Z,15.83
2023-03-10T01:13:22.201Z,16.47
2023-03-10T01:15:51.320Z,15.93
2023-03-10T01:18:21.451Z,14.90
2023-03-10T01:20:49.903Z,14.97
2023-03-10T01:23:20.632Z,14.57
2023-03-10T01:25:48.900Z,13.77
2023-03-10T01:28:16.711Z,15.30
2023-03-10T01:30:46.275Z,13.67
2023-03-10T01:33:15.494Z,13.00
2023-03-10T01:35:43.746Z,14.13
2023-03-10T01:38:11.782Z,13.97
2023-03-10T01:40:40.118Z,15.80
2023-03-10T01:43:32.942Z,12.87
2023-03-10T01:46:43.253Z,11.93
2023-03-10T01:49:18.964Z,13.57
2023-03-10T01:51:51.558Z,12.60
2023-03-10T01:54:23.912Z,13.20
2023-03-10T01:56:53.374Z,13.10
2023-03-10T01:59:22.782Z,14.17
2023-03-10T02:01:53.485Z,11.27
2023-03-10T02:04:27.208Z,13.17
2023-03-10T02:06:56.252Z,15.17
2023-03-10T02:09:26.200Z,12.27
2023-03-10T02:11:55.103Z,12.30
2023-03-10T02:14:23.021Z,11.97
2023-03-10T02:16:52.377Z,12.47
2023-03-10T02:19:35.635Z,11.47
2023-03-10T02:22:07.313Z,13.10
2023-03-10T02:24:46.467Z,13.80
2023-03-10T02:27:24.745Z,12.53
2023-03-10T02:30:00.795Z,12.53
2023-03-10T02:32:31.807Z,12.73
2023-03-10T02:34:59.742Z,12.13
2023-03-10T02:37:30.112Z,12.87
2023-03-10T02:39:58.264Z,12.60
2023-03-10T02:42:31.602Z,12.73
2023-03-10T02:44:59.930Z,13.53
2023-03-10T02:47:28.000Z,12.50
2023-03-10T02:49:55.930Z,13.97
2023-03-10T02:52:30.619Z,13.23
2023-03-10T02:54:58.605Z,12.33
2023-03-10T02:57:28.008Z,13.63
2023-03-10T02:59:55.982Z,13.40
2023-03-10T03:02:27.522Z,14.15
2023-03-10T03:04:55.882Z,13.50
2023-03-10T03:07:23.801Z,13.10
2023-03-10T03:09:51.724Z,13.23
2023-03-10T03:12:22.520Z,12.63
2023-03-10T03:14:51.776Z,13.53
2023-03-10T03:17:19.648Z,11.07
2023-03-10T03:19:49.737Z,12.83
2023-03-10T03:22:17.670Z,12.17
2023-03-10T03:24:45.856Z,11.87
2023-03-10T03:27:13.981Z,11.47
2023-03-10T03:29:41.903Z,11.30
2023-03-10T03:32:11.091Z,11.83
2023-03-10T03:34:39.112Z,10.57
2023-03-10T03:37:07.173Z,11.57
2023-03-10T03:39:35.337Z,10.70
2023-03-10T03:42:03.390Z,11.57
2023-03-10T03:44:31.309Z,11.50
2023-03-10T03:46:59.421Z,10.20
2023-03-10T03:49:29.238Z,10.00
2023-03-10T03:51:57.259Z,11.07
2023-03-10T03:54:27.160Z,11.57
2023-03-10T03:56:58.399Z,11.20
2023-03-10T03:59:26.571Z,10.73
2023-03-10T04:01:54.468Z,9.43
2023-03-10T04:04:22.329Z,10.00
2023-03-10T04:06:51.493Z,9.90
2023-03-10T04:09:19.382Z,9.37
2023-03-10T04:11:47.536Z,10.30
2023-03-10T04:14:15.505Z,11.13
2023-03-10T04:16:43.343Z,10.27
2023-03-10T04:19:11.672Z,9.73
2023-03-10T04:21:39.952Z,10.30
2023-03-10T04:24:09.801Z,10.30
2023-03-10T04:26:37.731Z,9.50
2023-03-10T04:29:05.818Z,10.23
2023-03-10T04:31:33.982Z,9.63
2023-03-10T04:34:01.808Z,9.83
2023-03-10T04:36:29.833Z,9.43
2023-03-10T04:38:57.940Z,10.23
2023-03-10T04:41:27.066Z,9.67
2023-03-10T04:43:54.976Z,9.63
2023-03-10T04:46:22.743Z,10.07
2023-03-10T04:48:51.727Z,9.97
2023-03-10T04:51:22.161Z,10.07
2023-03-10T04:53:50.758Z,9.77
2023-03-10T04:56:20.732Z,8.90
2023-03-10T04:58:53.049Z,8.20
2023-03-10T05:01:21.000Z,9.37
2023-03-10T05:03:48.858Z,8.30
2023-03-10T05:06:19.421Z,8.10
2023-03-10T05:08:48.089Z,9.80
2023-03-10T05:11:15.972Z,9.13
2023-03-10T05:13:43.737Z,9.77
2023-03-10T05:16:18.284Z,8.83
2023-03-10T05:18:46.621Z,10.40
2023-03-10T05:21:15.054Z,10.07
2023-03-10T05:23:43.067Z,9.70
2023-03-10T05:26:12.382Z,9.47
2023-03-10T05:28:40.445Z,9.70
2023-03-10T05:31:14.414Z,10.27
2023-03-10T05:33:44.218Z,11.23
2023-03-10T05:36:14.714Z,9.93
2023-03-10T05:38:42.926Z,12.30
2023-03-10T05:41:11.441Z,12.00
2023-03-10T05:43:40.604Z,10.77
2023-03-10T05:46:09.334Z,9.13
2023-03-10T05:48:37.340Z,9.63
2023-03-10T05:51:09.077Z,7.37
2023-03-10T05:53:38.373Z,9.87
2023-03-10T05:56:07.874Z,9.90
2023-03-10T05:58:36.700Z,10.00
2023-03-10T06:01:05.728Z,10.17
2023-03-10T06:03:34.518Z,11.37
2023-03-10T06:06:02.931Z,10.67
2023-03-10T06:08:32.891Z,10.87
2023-03-10T06:11:01.043Z,11.77
2023-03-10T06:13:28.920Z,11.50
2023-03-10T06:15:59.337Z,10.23
2023-03-10T06:18:28.736Z,9.40
2023-03-10T06:20:57.565Z,9.97
2023-03-10T06:23:28.584Z,9.70
2023-03-10T06:25:59.920Z,8.87
2023-03-10T06:28:32.980Z,10.43
2023-03-10T06:31:03.149Z,11.20
2023-03-10T06:33:31.558Z,10.83
2023-03-10T06:35:59.588Z,11.37
2023-03-10T06:38:27.970Z,9.43
2023-03-10T06:40:56.029Z,10.30
2023-03-10T06:43:25.857Z,9.40
2023-03-10T06:45:54.257Z,10.50
2023-03-10T06:48:22.205Z,10.20
2023-03-10T06:50:50.450Z,11.43
2023-03-10T06:53:20.760Z,10.43
2023-03-10T06:55:58.416Z,11.27
2023-03-10T06:58:27.976Z,11.10
2023-03-10T07:00:56.137Z,10.27
2023-03-10T07:03:26.183Z,10.33
2023-03-10T07:05:54.252Z,10.37
2023-03-10T07:08:22.687Z,10.50
2023-03-10T07:10:51.848Z,10.03
2023-03-10T07:13:21.810Z,10.80
2023-03-10T07:15:51.338Z,11.40
2023-03-10T07:18:19.474Z,10.03
2023-03-10T07:20:48.185Z,9.53
2023-03-10T07:23:18.636Z,10.70
2023-03-10T07:25:46.816Z,11.27
2023-03-10T07:28:15.044Z,10.63
2023-03-10T07:30:43.173Z,19.20
2023-03-10T07:33:12.916Z,11.23
2023-03-10T07:35:40.913Z,17.50
2023-03-10T07:38:08.972Z,12.00
2023-03-10T07:40:39.006Z,10.00
2023-03-10T07:43:06.996Z,11.17
2023-03-10T07:45:35.662Z,10.83
2023-03-10T07:48:03.839Z,11.83
2023-03-10T07:50:33.091Z,11.60
2023-03-10T07:53:01.249Z,10.13
2023-03-10T07:55:29.287Z,10.97
2023-03-10T07:57:57.651Z,19.50
2023-03-10T08:00:25.678Z,10.60
2023-03-10T08:02:56.345Z,12.17
2023-03-10T08:05:24.492Z,12.13
2023-03-10T08:07:54.120Z,11.13
2023-03-10T08:10:22.252Z,11.13
2023-03-10T08:12:50.289Z,9.53
2023-03-10T08:15:18.406Z,10.90
2023-03-10T08:17:46.382Z,12.30
2023-03-10T08:20:14.822Z,12.33
2023-03-10T08:22:42.682Z,12.70
2023-03-10T08:25:13.049Z,11.43
2023-03-10T08:27:41.587Z,13.00
2023-03-10T08:30:10.949Z,12.77
2023-03-10T08:32:38.802Z,12.77
2023-03-10T08:35:08.267Z,13.37
2023-03-10T08:37:36.217Z,14.60
2023-03-10T08:40:08.294Z,13.27
2023-03-10T08:42:37.535Z,14.00
2023-03-10T08:45:08.498Z,14.40
2023-03-10T08:47:37.283Z,23.47
2023-03-10T08:50:06.310Z,13.17
2023-03-10T08:52:34.786Z,15.07
2023-03-10T08:55:05.050Z,16.47
2023-03-10T08:57:33.570Z,14.53
2023-03-10T09:00:05.257Z,16.30
2023-03-10T09:02:33.669Z,14.90
2023-03-10T09:05:01.519Z,15.83
2023-03-10T09:07:29.647Z,15.33
2023-03-10T09:09:57.696Z,15.00
2023-03-10T09:12:29.538Z,15.07
2023-03-10T09:15:00.586Z,13.43
2023-03-10T09:17:30.310Z,14.33
2023-03-10T09:19:58.153Z,13.80
2023-03-10T09:22:26.229Z,14.07
2023-03-10T09:24:54.022Z,13.03
2023-03-10T09:27:21.785Z,13.53
2023-03-10T09:29:52.316Z,13.23
2023-03-10T09:32:20.337Z,14.03
2023-03-10T09:34:49.876Z,14.03
2023-03-10T09:37:18.173Z,15.73
2023-03-10T09:39:46.041Z,14.00
2023-03-10T09:42:37.427Z,15.77
2023-03-10T09:45:26.686Z,16.63
2023-03-10T09:48:07.204Z,14.57
2023-03-10T09:50:41.781Z,15.73
2023-03-10T09:53:27.141Z,15.87
2023-03-10T09:55:55.428Z,15.93
2023-03-10T09:58:31.540Z,14.90
2023-03-10T10:01:00.737Z,15.30
2023-03-10T10:03:46.351Z,15.53
2023-03-10T10:06:27.659Z,14.53
2023-03-10T10:09:04.729Z,15.60
2023-03-10T10:11:33.280Z,16.00
2023-03-10T10:14:22.312Z,15.43
2023-03-10T10:17:02.829Z,15.30
2023-03-10T10:19:31.044Z,15.83
2023-03-10T10:22:04.594Z,15.70
2023-03-10T10:24:33.186Z,14.20
2023-03-10T10:27:01.373Z,17.20
2023-03-10T10:29:36.452Z,15.60
2023-03-10T10:32:11.073Z,17.70
2023-03-10T10:34:40.112Z,18.30
2023-03-10T10:37:29.883Z,16.73
2023-03-10T10:40:00.170Z,19.13
2023-03-10T10:42:30.612Z,18.50
2023-03-10T10:45:00.444Z,18.00
2023-03-10T10:47:31.952Z,17.37
2023-03-10T10:50:18.355Z,18.83
2023-03-10T10:52:49.970Z,15.73
2023-03-10T10:55:27.932Z,14.37
2023-03-10T10:57:59.752Z,16.00
2023-03-10T11:00:32.053Z,14.43
2023-03-10T11:03:00.705Z,14.53
2023-03-10T11:05:37.284Z,15.03
2023-03-10T11:08:21.114Z,13.20
2023-03-10T11:10:57.661Z,13.80
2023-03-10T11:13:32.727Z,13.93
2023-03-10T11:16:08.149Z,15.70
2023-03-10T11:18:40.475Z,13.80
2023-03-10T11:21:15.126Z,14.50
2023-03-10T11:24:01.057Z,14.77
2023-03-10T11:26:48.201Z,12.90
2023-03-10T11:29:26.761Z,15.13
2023-03-10T11:32:05.695Z,14.03
2023-03-10T11:34:40.687Z,14.00
2023-03-10T11:37:17.076Z,13.83
2023-03-10T11:39:55.927Z,14.63
2023-03-10T11:42:31.468Z,13.77
2023-03-10T11:45:12.427Z,13.97
2023-03-10T11:47:54.224Z,14.50
2023-03-10T11:50:37.006Z,14.13
2023-03-10T11:53:12.400Z,14.23
2023-03-10T11:55:43.604Z,13.97
2023-03-10T11:58:22.908Z,13.20
2023-03-10T12:00:55.117Z,15.90
2023-03-10T12:03:44.711Z,15.90
2023-03-10T12:06:17.309Z,16.70
2023-03-10T12:08:46.151Z,15.20
2023-03-10T12:11:20.292Z,15.63
2023-03-10T12:13:53.025Z,13.83
2023-03-10T12:16:25.134Z,14.70
2023-03-10T12:18:53.571Z,15.70
2023-03-10T12:21:26.671Z,14.70
2023-03-10T12:23:56.330Z,12.33
2023-03-10T12:27:03.673Z,12.83
2023-03-10T12:29:39.664Z,12.00
2023-03-10T12:32:44.144Z,11.10
2023-03-10T12:35:47.642Z,10.03
2023-03-10T12:38:31.820Z,9.17
2023-03-10T12:41:02.618Z,9.17
2023-03-10T12:43:56.059Z,8.53
2023-03-10T12:46:30.519Z,8.97
2023-03-10T12:49:15.160Z,8.37
2023-03-10T12:51:47.821Z,6.80
2023-03-10T12:54:35.459Z,6.27
2023-03-10T12:57:10.157Z,7.13
2023-03-10T12:59:45.243Z,6.03
2023-03-10T13:02:26.692Z,6.40
2023-03-10T13:05:01.691Z,6.20
2023-03-10T13:07:31.191Z,6.70
2023-03-10T13:10:01.945Z,7.00
2023-03-10T13:12:37.165Z,8.03
2023-03-10T13:15:08.947Z,8.70
2023-03-10T13:17:37.286Z,11.33
2023-03-10T13:20:13.638Z,10.90
2023-03-10T13:22:52.634Z,9.40
2023-03-10T13:25:20.677Z,9.97
2023-03-10T13:27:48.974Z,9.57
2023-03-10T13:30:21.281Z,9.00
2023-03-10T13:32:57.665Z,7.63
2023-03-10T13:35:32.055Z,7.97
2023-03-10T13:38:11.942Z,8.00
2023-03-10T13:40:42.659Z,8.03
2023-03-10T13:43:35.502Z,7.57
2023-03-10T13:46:09.744Z,7.23
2023-03-10T13:48:38.577Z,7.50
2023-03-10T13:51:08.930Z,6.00
2023-03-10T13:53:37.015Z,7.30
2023-03-10T13:56:19.072Z,7.20
2023-03-10T13:58:51.128Z,6.63
2023-03-10T14:01:24.224Z,6.87
2023-03-10T14:03:54.956Z,7.07
2023-03-10T14:06:23.521Z,7.20
2023-03-10T14:08:54.462Z,6.90
2023-03-10T14:11:34.904Z,6.20
2023-03-10T14:14:08.087Z,8.40
2023-03-10T14:16:52.386Z,6.20
2023-03-10T14:19:49.667Z,7.13
2023-03-10T14:22:37.625Z,6.93
2023-03-10T14:25:15.249Z,7.00
2023-03-10T14:27:44.817Z,8.30
2023-03-10T14:30:23.299Z,7.93
2023-03-10T14:32:53.646Z,7.70
2023-03-10T14:35:23.865Z,7.43
2023-03-10T14:37:53.172Z,7.07
2023-03-10T14:40:22.751Z,7.50
2023-03-10T14:42:55.572Z,7.03
2023-03-10T14:45:29.908Z,7.47
2023-03-10T14:48:01.407Z,7.10
2023-03-10T14:50:35.573Z,6.20
2023-03-10T14:53:03.779Z,6.97
2023-03-10T14:55:32.011Z,6.87
2023-03-10T14:58:03.098Z,7.13
2023-03-10T15:00:32.187Z,9.53
2023-03-10T15:03:01.838Z,6.77
2023-03-10T15:05:46.928Z,6.50
2023-03-10T15:08:16.716Z,5.93
2023-03-10T15:10:48.158Z,5.43
2023-03-10T15:13:18.296Z,6.63
2023-03-10T15:15:48.034Z,7.40
2023-03-10T15:18:24.720Z,7.57
2023-03-10T15:20:55.193Z,6.97
2023-03-10T15:23:23.036Z,7.17
2023-03-10T15:25:51.955Z,7.30
2023-03-10T15:28:19.796Z,7.53
2023-03-10T15:30:48.035Z,9.00
2023-03-10T15:33:18.004Z,6.43
2023-03-10T15:35:46.158Z,6.73
2023-03-10T15:38:15.906Z,6.47
2023-03-10T15:40:44.091Z,6.67
2023-03-10T15:43:11.922Z,6.43
2023-03-10T15:45:42.548Z,6.40
2023-03-10T15:48:11.425Z,6.70
2023-03-10T15:50:44.332Z,6.73
2023-03-10T15:53:13.476Z,7.07
2023-03-10T15:55:43.055Z,7.03
2023-03-10T15:58:12.091Z,6.07
2023-03-10T16:00:42.226Z,7.10
2023-03-10T16:03:11.261Z,8.03
2023-03-10T16:05:39.332Z,8.03
2023-03-10T16:08:08.716Z,7.60
2023-03-10T16:10:40.318Z,7.77
2023-03-10T16:13:11.538Z,8.80
2023-03-10T16:15:40.004Z,8.97
2023-03-10T16:18:07.832Z,9.00
2023-03-10T16:20:35.782Z,10.77
2023-03-10T16:23:03.771Z,9.10
2023-03-10T16:25:33.230Z,9.43
2023-03-10T16:28:01.004Z,9.70
2023-03-10T16:30:30.418Z,10.37
2023-03-10T16:33:00.846Z,9.67
2023-03-10T16:35:30.192Z,9.57
2023-03-10T16:37:58.800Z,9.13
2023-03-10T16:40:26.697Z,9.47
2023-03-10T16:42:56.085Z,9.97
2023-03-10T16:45:24.187Z,10.00
2023-03-10T16:47:52.641Z,9.80
2023-03-10T16:50:20.753Z,9.43
2023-03-10T16:52:48.707Z,10.53
2023-03-10T16:55:18.301Z,11.40
2023-03-10T16:57:46.617Z,9.90
2023-03-10T17:00:21.071Z,10.57
2023-03-10T17:02:49.384Z,12.23
2023-03-10T17:05:18.029Z,10.67
2023-03-10T17:07:55.485Z,10.40
2023-03-10T17:10:26.862Z,12.17
2023-03-10T17:12:54.939Z,13.03
2023-03-10T17:15:25.067Z,12.40
2023-03-10T17:17:53.314Z,13.27
2023-03-10T17:20:21.607Z,14.20
2023-03-10T17:22:49.519Z,14.03
2023-03-10T17:25:17.947Z,13.83
2023-03-10T17:27:46.242Z,12.30
2023-03-10T17:30:19.108Z,14.30
2023-03-10T17:32:51.151Z,15.17
2023-03-10T17:35:19.690Z,14.33
2023-03-10T17:37:47.605Z,14.30
2023-03-10T17:40:18.985Z,14.37
2023-03-10T17:42:47.442Z,13.17
2023-03-10T17:45:16.317Z,11.67
2023-03-10T17:47:44.511Z,13.20
2023-03-10T17:50:14.599Z,12.30
2023-03-10T17:52:42.640Z,11.67
2023-03-10T17:55:11.330Z,11.73
2023-03-10T17:57:40.831Z,12.73
2023-03-10T18:00:13.902Z,12.43
2023-03-10T18:02:42.145Z,12.73
2023-03-10T18:05:11.830Z,13.83
2023-03-10T18:07:41.451Z,12.77
2023-03-10T18:10:11.348Z,12.40
2023-03-10T18:12:39.914Z,12.90
2023-03-10T18:15:09.088Z,12.40
2023-03-10T18:17:37.043Z,13.67
2023-03-10T18:20:10.316Z,13.87
2023-03-10T18:22:38.751Z,13.07
2023-03-10T18:25:09.084Z,12.23
2023-03-10T18:27:37.319Z,12.97
2023-03-10T18:30:08.405Z,12.37
2023-03-10T18:32:36.539Z,12.30
2023-03-10T18:35:05.120Z,12.33
2023-03-10T18:37:33.939Z,11.17
2023-03-10T18:40:02.315Z,13.10
2023-03-10T18:42:33.404Z,11.13
2023-03-10T18:45:01.445Z,11.30
2023-03-10T18:47:36.460Z,11.70
2023-03-10T18:50:05.579Z,10.00
2023-03-10T18:52:34.152Z,11.87
2023-03-10T18:55:02.366Z,10.00
2023-03-10T18:57:34.828Z,10.13
2023-03-10T19:00:06.260Z,10.53
2023-03-10T19:02:35.513Z,10.70
2023-03-10T19:05:05.304Z,9.97
2023-03-10T19:07:36.678Z,11.27
2023-03-10T19:10:05.729Z,10.67
2023-03-10T19:12:35.425Z,11.43
2023-03-10T19:15:09.050Z,11.27
2023-03-10T19:17:39.595Z,11.47
2023-03-10T19:20:11.599Z,11.00
2023-03-10T19:22:42.168Z,10.73
2023-03-10T19:25:13.541Z,10.87
2023-03-10T19:27:46.212Z,9.80
2023-03-10T19:30:17.994Z,10.10
2023-03-10T19:32:46.670Z,10.70
2023-03-10T19:35:15.803Z,9.07
2023-03-10T19:37:44.304Z,10.57
2023-03-10T19:40:16.237Z,10.60
2023-03-10T19:42:46.578Z,9.70
2023-03-10T19:45:16.980Z,10.30
2023-03-10T19:47:45.881Z,10.43
2023-03-10T19:50:17.445Z,10.40
2023-03-10T19:52:46.190Z,10.47
2023-03-10T19:55:17.948Z,10.73
2023-03-10T19:57:48.240Z,12.77
2023-03-10T20:00:18.941Z,10.73
2023-03-10T20:02:47.451Z,11.13
2023-03-10T20:05:16.980Z,10.90
2023-03-10T20:07:47.220Z,9.83
2023-03-10T20:10:16.135Z,11.60
2023-03-10T20:12:47.325Z,11.63
2023-03-10T20:15:17.297Z,11.70
2023-03-10T20:17:45.423Z,10.93
2023-03-10T20:20:15.281Z,11.10
2023-03-10T20:22:45.751Z,11.27
2023-03-10T20:25:17.492Z,12.63
2023-03-10T20:27:46.398Z,12.33
2023-03-10T20:30:19.303Z,12.13
2023-03-10T20:32:48.103Z,12.10
2023-03-10T20:35:17.787Z,10.80
2023-03-10T20:37:45.680Z,12.53
2023-03-10T20:40:15.424Z,12.67
2023-03-10T20:42:43.703Z,12.63
2023-03-10T20:45:12.625Z,13.70
2023-03-10T20:47:42.486Z,13.77
2023-03-10T20:50:13.188Z,13.73
2023-03-10T20:52:44.100Z,13.33
2023-03-10T20:55:17.735Z,13.37
2023-03-10T20:57:48.647Z,13.43
2023-03-10T21:00:18.718Z,15.00
2023-03-10T21:02:51.328Z,14.03
2023-03-10T21:05:19.823Z,13.43
2023-03-10T21:07:48.067Z,13.10
2023-03-10T21:10:16.889Z,14.53
2023-03-10T21:12:45.482Z,13.13
2023-03-10T21:15:15.945Z,13.83
2023-03-10T21:17:44.381Z,13.40
2023-03-10T21:20:17.640Z,14.83
2023-03-10T21:22:45.783Z,13.27
2023-03-10T21:25:16.744Z,13.13
2023-03-10T21:27:48.169Z,14.03
2023-03-10T21:30:17.405Z,13.13
2023-03-10T21:32:45.937Z,13.13
2023-03-10T21:35:15.352Z,13.03
2023-03-10T21:37:46.878Z,13.00
2023-03-10T21:40:19.615Z,13.87
2023-03-10T21:42:48.078Z,13.57
2023-03-10T21:45:18.414Z,11.90
2023-03-10T21:47:46.769Z,13.50
2023-03-10T21:50:17.759Z,13.67
2023-03-10T21:52:46.305Z,13.13
2023-03-10T21:55:27.082Z,13.03
2023-03-10T21:57:55.091Z,13.87
2023-03-10T22:00:24.386Z,13.77
2023-03-10T22:02:53.288Z,13.30
2023-03-10T22:05:22.728Z,11.87
2023-03-10T22:07:53.466Z,12.70
2023-03-10T22:10:21.517Z,12.73
2023-03-10T22:12:49.648Z,12.50
2023-03-10T22:15:21.802Z,11.70
2023-03-10T22:17:49.660Z,12.37
2023-03-10T22:20:20.715Z,11.87
2023-03-10T22:22:50.696Z,12.13
2023-03-10T22:25:19.520Z,8.63
2023-03-10T22:27:53.538Z,11.83
2023-03-10T22:30:22.752Z,12.13
2023-03-10T22:32:50.887Z,11.43
2023-03-10T22:35:19.797Z,10.90
2023-03-10T22:37:51.402Z,10.47
2023-03-10T22:40:21.953Z,11.20
2023-03-10T22:42:50.218Z,12.23
2023-03-10T22:45:21.956Z,12.33
2023-03-10T22:47:51.264Z,11.87
2023-03-10T22:50:23.499Z,11.03
2023-03-10T22:52:52.957Z,13.60
2023-03-10T22:55:25.364Z,11.70
2023-03-10T22:57:53.709Z,10.27
2023-03-10T23:00:23.753Z,9.80
2023-03-10T23:02:53.812Z,10.73
2023-03-10T23:05:22.741Z,10.23
2023-03-10T23:07:53.262Z,10.77
2023-03-10T23:10:24.115Z,10.23
2023-03-10T23:12:52.229Z,9.97
2023-03-10T23:15:25.131Z,10.73
2023-03-10T23:17:54.070Z,9.43
2023-03-10T23:20:24.091Z,10.40
2023-03-10T23:22:54.132Z,9.60
2023-03-10T23:25:24.799Z,9.47
2023-03-10T23:27:52.565Z,9.90
2023-03-10T23:30:20.651Z,12.27
2023-03-10T23:32:50.492Z,12.43
2023-03-10T23:35:25.008Z,12.30
2023-03-10T23:37:54.830Z,11.23
2023-03-10T23:40:26.896Z,13.43
2023-03-10T23:42:55.066Z,12.33
2023-03-10T23:45:28.092Z,12.30
2023-03-10T23:47:56.789Z,8.33
2023-03-10T23:50:27.474Z,10.33
2023-03-10T23:52:57.459Z,12.37
2023-03-10T23:55:26.695Z,11.47
2023-03-10T23:57:55.452Z,11.80
